createdAt,value
2018-06-04T00:00:28.356Z,0
2018-06-04T00:01:08.901Z,0
2018-06-04T00:01:49.456Z,0
2018-06-04T00:02:30.007Z,0
2018-06-04T00:03:10.591Z,0
2018-06-04T00:03:51.193Z,0
2018-06-04T00:04:31.755Z,0
2018-06-04T00:05:12.316Z,0
2018-06-04T00:05:52.965Z,0
2018-06-04T00:06:33.525Z,0
2018-06-04T00:07:14.085Z,0
2018-06-04T00:07:54.659Z,0
2018-06-04T00:08:35.236Z,0
2018-06-04T00:09:15.799Z,0
2018-06-04T00:09:56.366Z,0
2018-06-04T00:10:36.943Z,0
2018-06-04T00:11:17.481Z,0
2018-06-04T00:11:58.031Z,0
2018-06-04T00:12:38.605Z,0
2018-06-04T00:13:19.135Z,0
2018-06-04T00:13:59.709Z,0
2018-06-04T00:14:40.307Z,0
2018-06-04T00:15:20.827Z,0
2018-06-04T00:16:01.411Z,0
2018-06-04T00:16:42.019Z,0
2018-06-04T00:17:22.569Z,0
2018-06-04T00:18:03.099Z,0
2018-06-04T00:18:43.649Z,0
2018-06-04T00:19:24.213Z,0
2018-06-04T00:20:04.742Z,0
2018-06-04T00:20:45.303Z,0
2018-06-04T00:21:25.830Z,0
2018-06-04T00:22:06.401Z,0
2018-06-04T00:22:46.937Z,0
2018-06-04T00:23:27.502Z,0
2018-06-04T00:24:08.055Z,0
2018-06-04T00:24:48.629Z,0
2018-06-04T00:25:29.187Z,0
2018-06-04T00:26:09.793Z,0
2018-06-04T00:26:50.407Z,0
2018-06-04T00:27:30.967Z,0
2018-06-04T00:28:11.514Z,0
2018-06-04T00:28:52.110Z,0
2018-06-04T00:29:32.712Z,0
2018-06-04T00:30:13.261Z,0
2018-06-04T00:30:53.837Z,0
2018-06-04T00:31:34.401Z,0
2018-06-04T00:32:14.983Z,0
2018-06-04T00:32:55.517Z,0
2018-06-04T00:33:36.099Z,0
2018-06-04T00:34:16.696Z,0
2018-06-04T00:34:57.252Z,0
2018-06-04T00:35:37.823Z,0
2018-06-04T00:36:18.429Z,0
2018-06-04T00:36:59.003Z,0
2018-06-04T00:37:39.577Z,0
2018-06-04T00:38:20.132Z,0
2018-06-04T00:39:00.677Z,0
2018-06-04T00:39:41.226Z,0
2018-06-04T00:40:21.782Z,0
2018-06-04T00:41:02.332Z,0
2018-06-04T00:41:42.880Z,0
2018-06-04T00:42:24.195Z,0
2018-06-04T00:43:04.795Z,0
2018-06-04T00:43:45.353Z,0
2018-06-04T00:44:25.948Z,0
2018-06-04T00:45:06.503Z,0
2018-06-04T00:45:47.082Z,0
2018-06-04T00:46:27.654Z,0
2018-06-04T00:47:08.249Z,0
2018-06-04T00:47:48.807Z,0
2018-06-04T00:48:29.463Z,0
2018-06-04T00:49:10.043Z,0
2018-06-04T00:49:50.623Z,0
2018-06-04T00:50:31.171Z,0
2018-06-04T00:51:11.748Z,0
2018-06-04T00:51:52.344Z,0
2018-06-04T00:52:32.912Z,0
2018-06-04T00:53:13.474Z,0
2018-06-04T00:53:54.012Z,0
2018-06-04T00:54:34.596Z,0
2018-06-04T00:55:15.137Z,0
2018-06-04T00:55:55.729Z,0
2018-06-04T00:56:36.274Z,0
2018-06-04T00:57:16.847Z,0
2018-06-04T00:57:57.417Z,0
2018-06-04T00:58:38.053Z,0
2018-06-04T00:59:18.629Z,0
2018-06-04T00:59:59.180Z,0
2018-06-04T01:00:39.788Z,0
2018-06-04T01:01:20.348Z,0
2018-06-04T01:02:00.910Z,0
2018-06-04T01:02:41.484Z,0
2018-06-04T01:03:22.042Z,0
2018-06-04T01:04:02.582Z,0
2018-06-04T01:04:43.140Z,0
2018-06-04T01:05:23.714Z,0
2018-06-04T01:06:04.285Z,0
2018-06-04T01:06:44.830Z,0
2018-06-04T01:07:25.395Z,0
2018-06-04T01:08:05.977Z,0
2018-06-04T01:08:46.540Z,0
2018-06-04T01:09:27.116Z,0
2018-06-04T01:10:07.669Z,0
2018-06-04T01:10:48.250Z,0
2018-06-04T01:11:28.832Z,0
2018-06-04T01:12:09.422Z,0
2018-06-04T01:12:50.001Z,0
2018-06-04T01:13:30.598Z,0
2018-06-04T01:14:11.175Z,0
2018-06-04T01:14:51.748Z,0
2018-06-04T01:15:32.382Z,0
2018-06-04T01:16:12.940Z,0
2018-06-04T01:16:53.508Z,0
2018-06-04T01:17:34.085Z,0
2018-06-04T01:18:14.656Z,0
2018-06-04T01:18:55.203Z,0
2018-06-04T01:19:35.832Z,0
2018-06-04T01:20:16.395Z,0
2018-06-04T01:20:56.959Z,0
2018-06-04T01:21:37.558Z,0
2018-06-04T01:22:18.186Z,0
2018-06-04T01:22:58.771Z,0
2018-06-04T01:23:39.322Z,0
2018-06-04T01:24:19.878Z,0
2018-06-04T01:25:00.431Z,0
2018-06-04T01:25:40.997Z,0
2018-06-04T01:26:21.567Z,0
2018-06-04T01:27:02.121Z,0
2018-06-04T01:27:42.670Z,0
2018-06-04T01:28:23.234Z,0
2018-06-04T01:29:03.798Z,0
2018-06-04T01:29:44.398Z,0
2018-06-04T01:30:24.949Z,0
2018-06-04T01:31:05.497Z,0
2018-06-04T01:31:46.063Z,0
2018-06-04T01:32:26.666Z,0
2018-06-04T01:33:07.240Z,0
2018-06-04T01:33:47.852Z,0
2018-06-04T01:34:28.415Z,0
2018-06-04T01:35:08.986Z,0
2018-06-04T01:35:49.550Z,0
2018-06-04T01:36:30.223Z,0
2018-06-04T01:37:10.777Z,0
2018-06-04T01:37:51.343Z,0
2018-06-04T01:38:31.900Z,0
2018-06-04T01:39:12.455Z,0
2018-06-04T01:39:53.050Z,0
2018-06-04T01:40:33.593Z,0
2018-06-04T01:41:14.156Z,0
2018-06-04T01:41:54.704Z,0
2018-06-04T01:42:35.265Z,0
2018-06-04T01:43:15.905Z,0
2018-06-04T01:43:56.491Z,0
2018-06-04T01:44:37.050Z,0
2018-06-04T01:45:17.607Z,0
2018-06-04T01:45:58.207Z,0
2018-06-04T01:46:38.788Z,0
2018-06-04T01:47:19.331Z,0
2018-06-04T01:47:59.891Z,0
2018-06-04T01:48:40.448Z,0
2018-06-04T01:49:20.996Z,0
2018-06-04T01:50:01.603Z,0
2018-06-04T01:50:42.176Z,0
2018-06-04T01:51:22.742Z,0
2018-06-04T01:52:03.313Z,0
2018-06-04T01:52:43.895Z,0
2018-06-04T01:53:24.420Z,0
2018-06-04T01:54:04.978Z,0
2018-06-04T01:54:45.577Z,0
2018-06-04T01:55:26.172Z,0
2018-06-04T01:56:06.696Z,0
2018-06-04T01:56:47.272Z,0
2018-06-04T01:57:27.852Z,0
2018-06-04T01:58:08.440Z,0
2018-06-04T01:58:49.051Z,0
2018-06-04T01:59:29.658Z,0
2018-06-04T02:00:10.223Z,0
2018-06-04T02:00:50.770Z,0
2018-06-04T02:01:31.353Z,0
2018-06-04T02:02:11.902Z,0
2018-06-04T02:02:52.457Z,0
2018-06-04T02:03:33.034Z,0
2018-06-04T02:04:13.617Z,0
2018-06-04T02:04:54.185Z,0
2018-06-04T02:05:34.746Z,0
2018-06-04T02:06:15.330Z,0
2018-06-04T02:06:55.899Z,0
2018-06-04T02:07:36.465Z,4
2018-06-04T02:08:17.015Z,4
2018-06-04T02:08:57.571Z,4
2018-06-04T02:09:38.141Z,4
2018-06-04T02:10:18.688Z,0
2018-06-04T02:10:59.254Z,0
2018-06-04T02:11:39.832Z,0
2018-06-04T02:12:20.393Z,4
2018-06-04T02:13:00.949Z,4
2018-06-04T02:13:41.531Z,4
2018-06-04T02:14:22.079Z,0
2018-06-04T02:15:02.632Z,4
2018-06-04T02:15:43.205Z,4
2018-06-04T02:16:23.773Z,4
2018-06-04T02:17:04.314Z,4
2018-06-04T02:17:44.868Z,4
2018-06-04T02:18:25.394Z,4
2018-06-04T02:19:05.941Z,8
2018-06-04T02:19:46.500Z,4
2018-06-04T02:20:27.048Z,8
2018-06-04T02:21:07.657Z,4
2018-06-04T02:21:48.196Z,8
2018-06-04T02:22:28.783Z,8
2018-06-04T02:23:09.338Z,8
2018-06-04T02:23:49.929Z,8
2018-06-04T02:24:30.447Z,12
2018-06-04T02:25:11.069Z,12
2018-06-04T02:25:51.665Z,12
2018-06-04T02:26:32.200Z,16
2018-06-04T02:27:12.758Z,16
2018-06-04T02:27:53.360Z,16
2018-06-04T02:28:33.924Z,16
2018-06-04T02:29:14.480Z,16
2018-06-04T02:29:55.076Z,20
2018-06-04T02:30:35.626Z,20
2018-06-04T02:31:16.167Z,20
2018-06-04T02:31:56.725Z,24
2018-06-04T02:32:37.328Z,24
2018-06-04T02:33:17.885Z,28
2018-06-04T02:33:58.468Z,32
2018-06-04T02:34:39.010Z,32
2018-06-04T02:35:19.568Z,32
2018-06-04T02:36:00.142Z,36
2018-06-04T02:36:40.731Z,36
2018-06-04T02:37:21.288Z,40
2018-06-04T02:38:01.854Z,40
2018-06-04T02:38:42.422Z,44
2018-06-04T02:39:22.961Z,48
2018-06-04T02:40:03.514Z,52
2018-06-04T02:40:44.063Z,56
2018-06-04T02:41:24.619Z,56
2018-06-04T02:42:05.185Z,60
2018-06-04T02:42:45.759Z,64
2018-06-04T02:43:26.311Z,68
2018-06-04T02:44:06.883Z,72
2018-06-04T02:44:47.459Z,76
2018-06-04T02:45:28.067Z,76
2018-06-04T02:46:08.655Z,80
2018-06-04T02:46:49.227Z,84
2018-06-04T02:47:29.803Z,88
2018-06-04T02:48:10.357Z,96
2018-06-04T02:48:50.923Z,100
2018-06-04T02:49:31.499Z,104
2018-06-04T02:50:12.158Z,112
2018-06-04T02:50:52.640Z,112
2018-06-04T02:51:33.197Z,120
2018-06-04T02:52:13.745Z,124
2018-06-04T02:52:54.302Z,132
2018-06-04T02:53:34.876Z,140
2018-06-04T02:54:15.456Z,144
2018-06-04T02:54:56.022Z,148
2018-06-04T02:55:36.579Z,156
2018-06-04T02:56:17.189Z,164
2018-06-04T02:56:57.681Z,172
2018-06-04T02:57:38.238Z,176
2018-06-04T02:58:18.876Z,184
2018-06-04T02:58:59.447Z,188
2018-06-04T02:59:40.080Z,196
2018-06-04T03:00:20.617Z,204
2018-06-04T03:01:01.175Z,216
2018-06-04T03:01:41.769Z,220
2018-06-04T03:02:22.331Z,232
2018-06-04T03:03:02.876Z,240
2018-06-04T03:03:43.449Z,248
2018-06-04T03:04:24.039Z,256
2018-06-04T03:05:04.599Z,264
2018-06-04T03:05:45.148Z,276
2018-06-04T03:06:25.698Z,284
2018-06-04T03:07:06.259Z,296
2018-06-04T03:07:46.820Z,304
2018-06-04T03:08:27.440Z,316
2018-06-04T03:09:07.999Z,328
2018-06-04T03:09:48.566Z,336
2018-06-04T03:10:29.133Z,352
2018-06-04T03:11:09.684Z,360
2018-06-04T03:11:50.298Z,372
2018-06-04T03:12:30.885Z,388
2018-06-04T03:13:11.444Z,400
2018-06-04T03:13:52.000Z,416
2018-06-04T03:14:32.540Z,424
2018-06-04T03:15:13.129Z,440
2018-06-04T03:15:53.707Z,456
2018-06-04T03:16:34.265Z,468
2018-06-04T03:17:14.844Z,484
2018-06-04T03:17:55.390Z,500
2018-06-04T03:18:35.968Z,516
2018-06-04T03:19:16.543Z,532
2018-06-04T03:19:57.139Z,552
2018-06-04T03:20:37.757Z,568
2018-06-04T03:21:18.319Z,584
2018-06-04T03:21:58.874Z,604
2018-06-04T03:22:39.430Z,620
2018-06-04T03:23:19.977Z,636
2018-06-04T03:24:00.519Z,656
2018-06-04T03:24:41.091Z,676
2018-06-04T03:25:21.683Z,692
2018-06-04T03:26:02.280Z,708
2018-06-04T03:26:42.838Z,728
2018-06-04T03:27:23.388Z,748
2018-06-04T03:28:03.968Z,768
2018-06-04T03:28:44.515Z,784
2018-06-04T03:29:25.067Z,808
2018-06-04T03:30:05.637Z,832
2018-06-04T03:30:46.180Z,852
2018-06-04T03:31:26.783Z,876
2018-06-04T03:32:07.334Z,896
2018-06-04T03:32:47.894Z,920
2018-06-04T03:33:28.450Z,944
2018-06-04T03:34:09.020Z,964
2018-06-04T03:34:49.638Z,984
2018-06-04T03:35:30.172Z,1004
2018-06-04T03:36:10.785Z,1028
2018-06-04T03:36:51.352Z,1052
2018-06-04T03:37:31.897Z,1072
2018-06-04T03:38:12.488Z,1104
2018-06-04T03:38:53.053Z,1128
2018-06-04T03:39:33.610Z,1160
2018-06-04T03:40:14.182Z,1188
2018-06-04T03:40:54.764Z,1220
2018-06-04T03:41:35.329Z,1252
2018-06-04T03:42:15.883Z,1276
2018-06-04T03:42:56.473Z,1304
2018-06-04T03:43:37.031Z,1328
2018-06-04T03:44:17.588Z,1352
2018-06-04T03:44:58.131Z,1376
2018-06-04T03:45:38.683Z,1400
2018-06-04T03:46:19.254Z,1424
2018-06-04T03:46:59.831Z,1448
2018-06-04T03:47:40.383Z,1476
2018-06-04T03:48:20.946Z,1500
2018-06-04T03:49:01.495Z,1524
2018-06-04T03:49:42.058Z,1552
2018-06-04T03:50:22.590Z,1576
2018-06-04T03:51:03.272Z,1604
2018-06-04T03:51:44.005Z,1628
2018-06-04T03:52:24.569Z,1656
2018-06-04T03:53:05.156Z,1684
2018-06-04T03:53:45.733Z,1716
2018-06-04T03:54:26.300Z,1748
2018-06-04T03:55:06.871Z,1780
2018-06-04T03:55:47.442Z,1812
2018-06-04T03:56:27.992Z,1840
2018-06-04T03:57:08.539Z,1868
2018-06-04T03:57:50.045Z,1896
2018-06-04T03:58:30.628Z,1928
2018-06-04T03:59:11.207Z,1960
2018-06-04T03:59:51.765Z,1996
2018-06-04T04:00:32.335Z,2032
2018-06-04T04:01:12.919Z,2068
2018-06-04T04:01:53.561Z,2104
2018-06-04T04:02:34.057Z,2136
2018-06-04T04:03:14.629Z,2172
2018-06-04T04:03:55.172Z,2208
2018-06-04T04:04:35.758Z,2240
2018-06-04T04:05:16.307Z,2276
2018-06-04T04:05:56.902Z,2304
2018-06-04T04:06:37.471Z,2336
2018-06-04T04:07:18.046Z,2360
2018-06-04T04:07:58.583Z,2392
2018-06-04T04:08:39.132Z,2424
2018-06-04T04:09:19.685Z,2456
2018-06-04T04:10:00.316Z,2492
2018-06-04T04:10:40.880Z,2528
2018-06-04T04:11:21.442Z,2576
2018-06-04T04:12:01.991Z,2620
2018-06-04T04:12:42.532Z,2656
2018-06-04T04:13:23.088Z,2704
2018-06-04T04:14:03.639Z,2748
2018-06-04T04:14:44.226Z,2792
2018-06-04T04:15:24.808Z,2840
2018-06-04T04:16:05.407Z,2880
2018-06-04T04:16:46.048Z,2928
2018-06-04T04:17:26.564Z,2968
2018-06-04T04:18:07.133Z,3016
2018-06-04T04:18:47.675Z,3056
2018-06-04T04:19:28.235Z,3100
2018-06-04T04:20:08.805Z,3140
2018-06-04T04:20:49.358Z,3180
2018-06-04T04:21:29.921Z,3208
2018-06-04T04:22:10.476Z,3248
2018-06-04T04:22:51.044Z,3284
2018-06-04T04:23:31.693Z,3324
2018-06-04T04:24:12.275Z,3360
2018-06-04T04:24:52.847Z,3404
2018-06-04T04:25:33.410Z,3444
2018-06-04T04:26:13.958Z,3496
2018-06-04T04:26:54.547Z,3552
2018-06-04T04:27:35.113Z,3600
2018-06-04T04:28:15.679Z,3656
2018-06-04T04:28:56.257Z,3708
2018-06-04T04:29:36.794Z,3756
2018-06-04T04:30:17.349Z,3796
2018-06-04T04:30:57.939Z,3832
2018-06-04T04:31:38.514Z,3876
2018-06-04T04:32:19.091Z,3928
2018-06-04T04:32:59.665Z,3976
2018-06-04T04:33:40.214Z,4024
2018-06-04T04:34:20.777Z,4068
2018-06-04T04:35:01.348Z,4116
2018-06-04T04:35:41.906Z,4164
2018-06-04T04:36:22.486Z,4212
2018-06-04T04:37:03.064Z,4272
2018-06-04T04:37:43.719Z,4336
2018-06-04T04:38:24.268Z,4400
2018-06-04T04:39:04.885Z,4452
2018-06-04T04:39:45.449Z,4508
2018-06-04T04:40:26.019Z,4568
2018-06-04T04:41:06.579Z,4620
2018-06-04T04:41:47.138Z,4684
2018-06-04T04:42:27.693Z,4744
2018-06-04T04:43:08.249Z,4804
2018-06-04T04:43:48.832Z,4868
2018-06-04T04:44:29.419Z,4932
2018-06-04T04:45:09.990Z,5000
2018-06-04T04:45:50.544Z,5072
2018-06-04T04:46:31.087Z,5136
2018-06-04T04:47:11.655Z,5196
2018-06-04T04:47:52.197Z,5256
2018-06-04T04:48:32.790Z,5312
2018-06-04T04:49:13.377Z,5360
2018-06-04T04:49:53.965Z,5412
2018-06-04T04:50:34.529Z,5460
2018-06-04T04:51:15.081Z,5512
2018-06-04T04:51:55.653Z,5568
2018-06-04T04:52:36.237Z,5612
2018-06-04T04:53:16.797Z,5660
2018-06-04T04:53:57.382Z,5704
2018-06-04T04:54:37.925Z,5760
2018-06-04T04:55:18.461Z,5812
2018-06-04T04:55:59.036Z,5876
2018-06-04T04:56:39.613Z,5944
2018-06-04T04:57:20.188Z,6000
2018-06-04T04:58:00.744Z,6056
2018-06-04T04:58:41.294Z,6108
2018-06-04T04:59:21.845Z,6168
2018-06-04T05:00:02.402Z,6236
2018-06-04T05:00:42.947Z,6300
2018-06-04T05:01:23.516Z,6376
2018-06-04T05:02:04.095Z,6444
2018-06-04T05:02:44.659Z,6520
2018-06-04T05:03:25.258Z,6596
2018-06-04T05:04:05.941Z,6676
2018-06-04T05:04:46.545Z,6756
2018-06-04T05:05:27.104Z,6832
2018-06-04T05:06:07.676Z,6916
2018-06-04T05:06:48.247Z,7000
2018-06-04T05:07:28.827Z,7072
2018-06-04T05:08:09.395Z,7132
2018-06-04T05:08:49.989Z,7168
2018-06-04T05:09:30.632Z,7208
2018-06-04T05:10:11.203Z,7244
2018-06-04T05:10:51.782Z,7308
2018-06-04T05:11:32.360Z,7396
2018-06-04T05:12:12.926Z,7484
2018-06-04T05:12:53.492Z,7580
2018-06-04T05:13:34.059Z,7680
2018-06-04T05:14:14.632Z,7776
2018-06-04T05:14:55.204Z,7868
2018-06-04T05:15:35.783Z,7960
2018-06-04T05:16:16.348Z,8040
2018-06-04T05:16:56.912Z,8116
2018-06-04T05:17:37.486Z,8172
2018-06-04T05:18:18.073Z,8244
2018-06-04T05:18:58.654Z,8316
2018-06-04T05:19:39.205Z,8416
2018-06-04T05:20:19.854Z,9036
2018-06-04T05:21:00.429Z,10012
2018-06-04T05:21:41.000Z,11120
2018-06-04T05:22:21.572Z,12580
2018-06-04T05:23:02.151Z,14588
2018-06-04T05:23:42.723Z,16608
2018-06-04T05:24:23.285Z,18912
2018-06-04T05:25:03.860Z,22080
2018-06-04T05:25:44.431Z,28224
2018-06-04T05:26:25.044Z,36960
2018-06-04T05:27:05.566Z,46304
2018-06-04T05:27:46.137Z,48832
2018-06-04T05:28:26.724Z,48736
2018-06-04T05:29:07.292Z,46784
2018-06-04T05:29:47.861Z,46240
2018-06-04T05:30:28.439Z,44704
2018-06-04T05:31:09.018Z,43520
2018-06-04T05:31:49.799Z,44064
2018-06-04T05:32:30.325Z,43328
2018-06-04T05:33:10.909Z,45984
2018-06-04T05:33:51.480Z,45856
2018-06-04T05:34:32.057Z,47968
2018-06-04T05:35:12.627Z,47936
2018-06-04T05:35:53.190Z,48832
2018-06-04T05:36:33.753Z,48896
2018-06-04T05:37:14.327Z,49152
2018-06-04T05:37:54.891Z,48032
2018-06-04T05:38:35.455Z,47936
2018-06-04T05:39:16.029Z,45824
2018-06-04T05:39:56.607Z,45888
2018-06-04T05:40:37.167Z,46144
2018-06-04T05:41:17.766Z,46112
2018-06-04T05:41:58.317Z,48064
2018-06-04T05:42:38.872Z,47264
2018-06-04T05:43:19.458Z,46848
2018-06-04T05:44:00.063Z,45888
2018-06-04T05:44:40.665Z,46624
2018-06-04T05:45:21.233Z,47392
2018-06-04T05:46:01.798Z,46400
2018-06-04T05:46:42.360Z,46656
2018-06-04T05:47:22.931Z,47136
2018-06-04T05:48:03.513Z,47392
2018-06-04T05:48:44.077Z,49184
2018-06-04T05:49:24.639Z,52064
2018-06-04T05:50:05.199Z,52576
2018-06-04T05:50:45.899Z,53184
2018-06-04T05:51:26.495Z,54272
2018-06-04T05:52:07.032Z,53952
2018-06-04T05:52:47.609Z,52992
2018-06-04T05:53:28.172Z,52448
2018-06-04T05:54:08.724Z,51552
2018-06-04T05:54:49.292Z,51712
2018-06-04T05:55:29.882Z,51840
2018-06-04T05:56:10.486Z,51552
2018-06-04T05:56:51.015Z,52704
2018-06-04T05:57:31.613Z,51808
2018-06-04T05:58:12.189Z,51584
2018-06-04T05:58:52.757Z,54592
2018-06-04T05:59:33.331Z,52896
2018-06-04T06:00:13.878Z,53344
2018-06-04T06:00:54.447Z,58080
2018-06-04T06:01:35.020Z,58368
2018-06-04T06:02:15.589Z,57984
2018-06-04T06:02:56.168Z,57888
2018-06-04T06:03:36.735Z,57184
2018-06-04T06:04:17.310Z,57216
2018-06-04T06:04:57.945Z,59104
2018-06-04T06:05:38.511Z,61344
2018-06-04T06:06:19.083Z,62240
2018-06-04T06:06:59.659Z,61632
2018-06-04T06:07:40.244Z,61760
2018-06-04T06:08:20.900Z,62048
2018-06-04T06:09:01.451Z,61760
2018-06-04T06:09:42.040Z,62048
2018-06-04T06:10:22.638Z,62688
2018-06-04T06:11:03.237Z,60352
2018-06-04T06:11:43.824Z,60992
2018-06-04T06:12:24.393Z,60512
2018-06-04T06:13:05.362Z,59936
2018-06-04T06:13:45.938Z,58208
2018-06-04T06:14:26.572Z,57632
2018-06-04T06:15:07.123Z,57472
2018-06-04T06:15:47.685Z,55232
2018-06-04T06:16:28.273Z,52768
2018-06-04T06:17:08.816Z,56160
2018-06-04T06:17:49.385Z,56160
2018-06-04T06:18:29.962Z,55360
2018-06-04T06:19:10.559Z,55520
2018-06-04T06:19:51.185Z,54912
2018-06-04T06:20:31.722Z,56320
2018-06-04T06:21:12.279Z,57376
2018-06-04T06:21:52.835Z,57504
2018-06-04T06:22:33.485Z,57824
2018-06-04T06:23:14.087Z,58336
2018-06-04T06:23:54.664Z,57792
2018-06-04T06:24:35.235Z,57664
2018-06-04T06:25:15.789Z,59456
2018-06-04T06:25:56.345Z,61056
2018-06-04T06:26:36.906Z,61312
2018-06-04T06:27:17.461Z,59456
2018-06-04T06:27:58.052Z,57760
2018-06-04T06:28:38.628Z,57216
2018-06-04T06:29:19.177Z,57792
2018-06-04T06:29:59.733Z,59072
2018-06-04T06:30:40.359Z,57088
2018-06-04T06:31:20.934Z,56864
2018-06-04T06:32:01.529Z,58560
2018-06-04T06:32:42.119Z,61728
2018-06-04T06:33:22.707Z,61504
2018-06-04T06:34:03.275Z,60032
2018-06-04T06:34:43.850Z,58592
2018-06-04T06:35:24.441Z,58400
2018-06-04T06:36:05.019Z,57664
2018-06-04T06:36:45.555Z,57888
2018-06-04T06:37:26.169Z,61952
2018-06-04T06:38:06.794Z,61376
2018-06-04T06:38:47.381Z,59488
2018-06-04T06:39:27.972Z,58016
2018-06-04T06:40:08.534Z,59392
2018-06-04T06:40:49.102Z,62336
2018-06-04T06:41:29.678Z,61600
2018-06-04T06:42:10.246Z,61568
2018-06-04T06:42:50.813Z,61120
2018-06-04T06:43:31.383Z,59680
2018-06-04T06:44:11.961Z,57888
2018-06-04T06:44:52.537Z,52960
2018-06-04T06:45:33.207Z,63296
2018-06-04T06:46:13.768Z,64320
2018-06-04T06:46:54.331Z,65152
2018-06-04T06:47:34.911Z,62816
2018-06-04T06:48:15.481Z,59616
2018-06-04T06:48:56.286Z,56768
2018-06-04T06:49:36.860Z,56768
2018-06-04T06:50:17.449Z,60320
2018-06-04T06:50:58.073Z,63872
2018-06-04T06:51:38.628Z,66304
2018-06-04T06:52:19.220Z,65728
2018-06-04T06:52:59.791Z,64960
2018-06-04T06:53:40.390Z,63808
2018-06-04T06:54:21.020Z,63456
2018-06-04T06:55:01.592Z,61088
2018-06-04T06:55:42.190Z,59648
2018-06-04T06:56:22.743Z,58784
2018-06-04T06:57:03.302Z,64064
2018-06-04T06:57:43.875Z,65920
2018-06-04T06:58:24.455Z,65376
2018-06-04T06:59:05.027Z,63712
2018-06-04T06:59:45.623Z,62880
2018-06-04T07:00:26.187Z,60032
2018-06-04T07:01:06.763Z,59424
2018-06-04T07:01:47.355Z,59296
2018-06-04T07:02:27.936Z,60288
2018-06-04T07:03:08.494Z,63520
2018-06-04T07:03:49.088Z,62112
2018-06-04T07:04:29.898Z,57568
2018-06-04T07:05:10.463Z,55136
2018-06-04T07:05:51.057Z,57824
2018-06-04T07:06:31.619Z,58560
2018-06-04T07:07:12.173Z,60032
2018-06-04T07:07:52.757Z,58976
2018-06-04T07:08:33.377Z,61472
2018-06-04T07:09:13.933Z,63424
2018-06-04T07:09:54.505Z,64608
2018-06-04T07:10:35.102Z,63616
2018-06-04T07:11:15.688Z,62080
2018-06-04T07:11:56.279Z,61696
2018-06-04T07:12:36.864Z,61152
2018-06-04T07:13:17.420Z,60736
2018-06-04T07:13:57.985Z,61568
2018-06-04T07:14:38.558Z,60896
2018-06-04T07:15:19.138Z,58176
2018-06-04T07:15:59.712Z,55040
2018-06-04T07:16:40.325Z,43104
2018-06-04T07:17:20.878Z,17188
2018-06-04T07:18:01.450Z,16676
2018-06-04T07:18:42.028Z,15908
2018-06-04T07:19:22.564Z,15516
2018-06-04T07:20:03.134Z,65792
2018-06-04T07:20:43.708Z,64224
2018-06-04T07:21:24.326Z,63136
2018-06-04T07:22:04.799Z,64640
2018-06-04T07:22:45.393Z,64960
2018-06-04T07:23:25.974Z,62752
2018-06-04T07:24:06.521Z,56800
2018-06-04T07:24:47.089Z,65536
2018-06-04T07:25:27.680Z,67616
2018-06-04T07:26:08.269Z,68032
2018-06-04T07:26:48.858Z,68288
2018-06-04T07:27:29.411Z,68160
2018-06-04T07:28:09.966Z,68064
2018-06-04T07:28:50.594Z,64704
2018-06-04T07:29:31.200Z,64928
2018-06-04T07:30:11.764Z,64960
2018-06-04T07:30:52.336Z,67552
2018-06-04T07:31:32.905Z,67904
2018-06-04T07:32:13.470Z,68544
2018-06-04T07:32:54.017Z,68128
2018-06-04T07:33:34.672Z,67872
2018-06-04T07:34:15.302Z,65472
2018-06-04T07:34:55.904Z,61248
2018-06-04T07:35:36.445Z,60416
2018-06-04T07:36:17.018Z,60480
2018-06-04T07:36:57.584Z,61312
2018-06-04T07:37:38.151Z,62432
2018-06-04T07:38:18.748Z,68256
2018-06-04T07:38:59.312Z,70912
2018-06-04T07:39:39.912Z,71200
2018-06-04T07:40:20.464Z,70848
2018-06-04T07:41:01.039Z,69920
2018-06-04T07:41:41.666Z,70144
2018-06-04T07:42:22.324Z,69056
2018-06-04T07:43:02.929Z,69792
2018-06-04T07:43:43.496Z,69696
2018-06-04T07:44:24.072Z,70016
2018-06-04T07:45:04.811Z,71136
2018-06-04T07:45:45.374Z,72320
2018-06-04T07:46:25.947Z,72672
2018-06-04T07:47:06.507Z,70976
2018-06-04T07:47:47.114Z,73920
2018-06-04T07:48:27.677Z,77408
2018-06-04T07:49:08.273Z,78080
2018-06-04T07:49:48.826Z,77568
2018-06-04T07:50:29.430Z,78016
2018-06-04T07:51:10.015Z,77728
2018-06-04T07:51:50.593Z,75008
2018-06-04T07:52:31.174Z,70208
2018-06-04T07:53:11.740Z,66752
2018-06-04T07:53:52.316Z,39008
2018-06-04T07:54:32.887Z,70688
2018-06-04T07:55:13.461Z,68224
2018-06-04T07:55:54.028Z,66016
2018-06-04T07:56:34.587Z,60256
2018-06-04T07:57:15.247Z,15720
2018-06-04T07:57:55.746Z,60064
2018-06-04T07:58:36.359Z,50112
2018-06-04T07:59:16.915Z,17536
2018-06-04T07:59:57.507Z,16752
2018-06-04T08:00:38.084Z,16344
2018-06-04T08:01:18.732Z,17664
2018-06-04T08:01:59.337Z,21408
2018-06-04T08:02:39.940Z,20832
2018-06-04T08:03:20.520Z,18368
2018-06-04T08:04:01.120Z,13296
2018-06-04T08:04:41.699Z,11156
2018-06-04T08:05:22.276Z,18624
2018-06-04T08:06:02.870Z,18880
2018-06-04T08:06:43.460Z,19456
2018-06-04T08:07:24.036Z,19936
2018-06-04T08:08:04.624Z,20224
2018-06-04T08:08:45.217Z,20192
2018-06-04T08:09:25.825Z,20128
2018-06-04T08:10:06.433Z,19712
2018-06-04T08:10:46.977Z,19616
2018-06-04T08:11:27.559Z,19488
2018-06-04T08:12:08.107Z,19264
2018-06-04T08:12:48.672Z,18976
2018-06-04T08:13:29.622Z,18560
2018-06-04T08:14:10.360Z,18144
2018-06-04T08:14:50.945Z,18080
2018-06-04T08:15:31.845Z,17856
2018-06-04T08:16:12.658Z,17824
2018-06-04T08:16:53.501Z,17984
2018-06-04T08:17:34.341Z,17632
2018-06-04T08:18:15.189Z,18080
2018-06-04T08:18:55.766Z,17984
2018-06-04T08:19:36.387Z,17568
2018-06-04T08:20:17.130Z,16992
2018-06-04T08:20:57.850Z,15924
2018-06-04T08:21:38.971Z,15452
2018-06-04T08:22:19.540Z,15292
2018-06-04T08:23:00.936Z,15036
2018-06-04T08:23:41.378Z,14808
2018-06-04T08:24:23.008Z,14664
2018-06-04T08:25:03.536Z,14716
2018-06-04T08:25:44.104Z,14584
2018-06-04T08:26:24.741Z,14572
2018-06-04T08:27:05.324Z,14640
2018-06-04T08:27:45.892Z,12716
2018-06-04T08:28:26.476Z,11896
2018-06-04T08:29:07.064Z,12352
2018-06-04T08:29:47.631Z,14188
2018-06-04T08:30:28.218Z,14504
2018-06-04T08:31:08.811Z,14244
2018-06-04T08:31:49.399Z,11636
2018-06-04T08:32:29.990Z,10728
2018-06-04T08:33:10.616Z,9780
2018-06-04T08:33:51.157Z,11796
2018-06-04T08:34:31.721Z,11772
2018-06-04T08:35:12.303Z,11964
2018-06-04T08:35:52.876Z,12080
2018-06-04T08:36:33.453Z,12204
2018-06-04T08:37:13.999Z,12376
2018-06-04T08:37:54.560Z,12596
2018-06-04T08:38:35.112Z,12820
2018-06-04T08:39:15.657Z,12948
2018-06-04T08:39:56.204Z,13020
2018-06-04T08:40:36.778Z,13112
2018-06-04T08:41:17.344Z,12924
2018-06-04T08:41:57.930Z,11788
2018-06-04T08:42:38.495Z,11160
2018-06-04T08:43:19.072Z,10660
2018-06-04T08:43:59.744Z,11988
2018-06-04T08:44:40.333Z,12948
2018-06-04T08:45:20.905Z,10996
2018-06-04T08:46:01.466Z,10264
2018-06-04T08:46:42.064Z,9640
2018-06-04T08:47:22.650Z,11380
2018-06-04T08:48:03.228Z,11948
2018-06-04T08:48:43.792Z,12480
2018-06-04T08:49:24.336Z,12632
2018-06-04T08:50:04.870Z,12536
2018-06-04T08:50:45.465Z,12248
2018-06-04T08:51:26.031Z,12148
2018-06-04T08:52:06.687Z,12268
2018-06-04T08:52:47.263Z,12504
2018-06-04T08:53:27.829Z,12612
2018-06-04T08:54:08.384Z,12624
2018-06-04T08:54:48.965Z,12680
2018-06-04T08:55:29.535Z,12820
2018-06-04T08:56:10.101Z,12144
2018-06-04T08:56:50.674Z,10964
2018-06-04T08:57:31.241Z,10676
2018-06-04T08:58:11.799Z,10312
2018-06-04T08:58:52.394Z,9796
2018-06-04T08:59:32.946Z,9268
2018-06-04T09:00:13.512Z,8552
2018-06-04T09:00:54.093Z,7744
2018-06-04T09:01:34.648Z,7256
2018-06-04T09:02:15.213Z,7348
2018-06-04T09:02:55.776Z,7036
2018-06-04T09:03:36.402Z,6952
2018-06-04T09:04:17.018Z,6512
2018-06-04T09:04:57.578Z,7608
2018-06-04T09:05:38.160Z,8088
2018-06-04T09:06:18.695Z,8196
2018-06-04T09:06:59.327Z,8392
2018-06-04T09:07:39.902Z,8852
2018-06-04T09:08:20.505Z,9456
2018-06-04T09:09:01.092Z,10196
2018-06-04T09:09:41.670Z,10504
2018-06-04T09:10:22.219Z,10548